Seafalcon — 9HA2814 — position and weather

sailwx.info

Track history (hours):
 
Tides and Currents Weather Stations Pressure Air Temp Water Temp Dewpoint Dewpoint Depression Visibility Wind Speed Wind Dir Waves Ship Positions

Seafalcon

Last reported at 2016-Apr-05 06:25 UTC. Time now 2016-May-31 12:06 UTC.
Position N 30°29' E 122°53'.
Warning: this ship's position is 56 days out of date.

Length 250 m; draft 8.4 m.

Type: Tanker. MMSI: 256078000.

Date/timePositionNaut miles runAvg speedWind from/ knotsBaromVisibWave heightAir tempDewpointWater temp
2016-Apr-05 06:25N 30°29' E 122°53'1314.0
2016-Apr-05 05:31N 30°38' E 122°43'  
2016-Mar-31 22:09N 37°43' E 122°39'814.0
2016-Mar-31 21:33N 37°47' E 122°29'6913.7
2016-Mar-31 16:30N 38°11' E 121°07'1313.7
2016-Mar-31 15:33N 38°14' E 120°51'1313.3
2016-Mar-31 14:33N 38°13' E 120°34'1313.4
2016-Mar-31 13:34N 38°09' E 120°18'1413.8
2016-Mar-31 12:34N 37°56' E 120°13'1313.4
2016-Mar-31 11:33N 37°43' E 120°11'7 6.8
2016-Mar-31 10:33N 37°39' E 120°18'0 0.1
2016-Mar-31 07:18N 37°39' E 120°18'0 0.0
2016-Mar-31 06:30N 37°39' E 120°18'0 0.0
2016-Mar-31 05:33N 37°39' E 120°18'0 0.0
2016-Mar-31 01:24N 37°39' E 120°18'0 0.0
2016-Mar-30 23:24N 37°39' E 120°18'0 0.0
2016-Mar-30 22:30N 37°39' E 120°18'0 0.0
2016-Mar-30 21:24N 37°39' E 120°18'0 0.0
2016-Mar-30 18:18N 37°39' E 120°18'0 0.0
2016-Mar-30 17:24N 37°39' E 120°18'0 0.0
2016-Mar-30 14:12N 37°39' E 120°18'0 0.0
2016-Mar-30 13:06N 37°39' E 120°18'0 0.0
2016-Mar-30 12:30N 37°39' E 120°18'0 0.0
2016-Mar-30 10:06N 37°39' E 120°18'0 0.0
2016-Mar-30 08:24N 37°39' E 120°18'0 0.0
2016-Mar-30 07:30N 37°39' E 120°18'0 0.0
2016-Mar-30 04:24N 37°39' E 120°18'0 0.0
2016-Mar-30 03:30N 37°39' E 120°18'0 0.0
2016-Mar-30 02:18N 37°39' E 120°18'0 0.0
2016-Mar-30 01:30N 37°39' E 120°18'0 0.0
2016-Mar-29 23:18N 37°39' E 120°18'0 0.0
2016-Mar-29 22:24N 37°39' E 120°18'0 0.0
2016-Mar-29 21:30N 37°39' E 120°18'0 0.0
2016-Mar-29 20:30N 37°39' E 120°18'0 0.0
2016-Mar-29 19:30N 37°39' E 120°18'0 0.0
2016-Mar-29 18:24N 37°39' E 120°18'0 0.0
2016-Mar-29 17:30N 37°39' E 120°18'0 0.0
2016-Mar-29 16:24N 37°39' E 120°18'0 0.0
2016-Mar-29 15:30N 37°39' E 120°18'0 0.0
2016-Mar-29 14:30N 37°39' E 120°18'0 0.0
2016-Mar-29 13:30N 37°39' E 120°18'0 0.0
2016-Mar-29 12:26N 37°39' E 120°18'0 0.0
2016-Mar-29 11:32N 37°39' E 120°18'0 0.0
2016-Mar-29 10:32N 37°39' E 120°18'0 0.0
2016-Mar-29 09:29N 37°39' E 120°18'0 0.0
2016-Mar-29 08:33N 37°39' E 120°18'0 0.0
2016-Mar-29 07:33N 37°39' E 120°18'0 0.1
2016-Mar-29 05:24N 37°39' E 120°18'0 0.0
2016-Mar-29 04:30N 37°39' E 120°18'0 0.0
2016-Mar-29 03:18N 37°39' E 120°18'0 0.0
2016-Mar-29 02:32N 37°39' E 120°18'0 0.0
2016-Mar-29 01:29N 37°39' E 120°18'0 0.0
2016-Mar-29 00:32N 37°39' E 120°18'0 0.0
2016-Mar-28 23:32N 37°39' E 120°18'0 0.0
2016-Mar-28 22:32N 37°39' E 120°18'0 0.0
2016-Mar-28 21:32N 37°39' E 120°18'0 0.0
2016-Mar-28 20:32N 37°39' E 120°18'0 0.0
2016-Mar-28 19:29N 37°39' E 120°18'0 0.0
2016-Mar-28 18:32N 37°39' E 120°18'0 0.0
2016-Mar-28 17:32N 37°39' E 120°18'0 0.0
2016-Mar-28 16:32N 37°39' E 120°18'0 0.0
2016-Mar-28 15:32N 37°39' E 120°18'0 0.0
2016-Mar-28 14:32N 37°39' E 120°18'0 0.0
2016-Mar-28 13:32N 37°39' E 120°18'0 0.0
2016-Mar-28 12:32N 37°39' E 120°18'0 0.0
2016-Mar-28 11:20N 37°39' E 120°18'0 0.0
2016-Mar-28 10:26N 37°39' E 120°18'0 0.0
2016-Mar-28 09:32N 37°39' E 120°18'0 0.4
2016-Mar-28 08:33N 37°39' E 120°18'6 6.5
2016-Mar-28 07:33N 37°42' E 120°11'6 5.5
2016-Mar-28 06:33N 37°47' E 120°09'1 0.7
2016-Mar-28 05:33N 37°48' E 120°08'0 0.1
2016-Mar-28 04:30N 37°48' E 120°08'0 0.2
2016-Mar-28 03:30N 37°48' E 120°09'0 0.1
2016-Mar-28 01:30N 37°48' E 120°09'0 0.0
2016-Mar-28 00:30N 37°48' E 120°09'0 0.0
2016-Mar-27 23:33N 37°48' E 120°09'0 0.1
2016-Mar-27 22:30N 37°48' E 120°08'0 0.1
2016-Mar-27 21:30N 37°48' E 120°08'0 0.0
2016-Mar-27 20:33N 37°48' E 120°08'0 0.1
2016-Mar-27 19:33N 37°48' E 120°08'0 0.1
2016-Mar-27 18:30N 37°48' E 120°08'0 0.0
2016-Mar-27 17:33N 37°48' E 120°08'0 0.0
2016-Mar-27 16:33N 37°48' E 120°08'0 0.1
2016-Mar-27 15:33N 37°48' E 120°08'0 0.1
2016-Mar-27 14:24N 37°48' E 120°08'0 0.0
2016-Mar-27 12:30N 37°48' E 120°09'0 0.1
2016-Mar-27 11:24N 37°48' E 120°08'0 0.0
2016-Mar-27 10:27N 37°48' E 120°08'0 0.1
2016-Mar-27 09:33N 37°48' E 120°08'0 0.1
2016-Mar-27 08:33N 37°48' E 120°08'0 0.1
2016-Mar-27 07:33N 37°48' E 120°08'0 0.0
2016-Mar-27 06:33N 37°48' E 120°08'0 0.0
2016-Mar-27 05:33N 37°48' E 120°08'0 0.0
2016-Mar-27 04:33N 37°48' E 120°08'0 0.1
2016-Mar-27 03:33N 37°48' E 120°08'0 0.2
2016-Mar-27 02:33N 37°48' E 120°09'0 0.0
2016-Mar-27 01:33N 37°48' E 120°09'0 0.0
2016-Mar-26 21:14N 37°48' E 120°08'0 0.0
2016-Mar-26 20:32N 37°48' E 120°08'0 0.1
2016-Mar-26 19:32N 37°48' E 120°08'0 0.1
2016-Mar-26 18:26N 37°48' E 120°08'0 0.0
2016-Mar-26 17:32N 37°48' E 120°08'0 0.0
2016-Mar-26 16:32N 37°48' E 120°08'0 0.0
2016-Mar-26 15:32N 37°48' E 120°08'0 0.1
2016-Mar-26 14:32N 37°48' E 120°08'0 0.1
2016-Mar-26 13:32N 37°48' E 120°08'0 0.1
2016-Mar-26 12:26N 37°48' E 120°09'0 0.0
2016-Mar-26 11:29N 37°48' E 120°09'0 0.1
2016-Mar-26 10:26N 37°48' E 120°08'0 0.0
2016-Mar-26 09:32N 37°48' E 120°08'0 0.1
2016-Mar-26 08:32N 37°48' E 120°08'0 0.2
2016-Mar-26 07:32N 37°48' E 120°08'0 0.0
2016-Mar-26 06:32N 37°48' E 120°08'  
Track history (hours):
 
Tides and Currents Weather Stations Pressure Air Temp Water Temp Dewpoint Dewpoint Depression Visibility Wind Speed Wind Dir Waves Ship Positions

Seafalcon

Last reported at 2016-Apr-05 06:25 UTC. Time now 2016-May-31 12:06 UTC.
Position N 30°29' E 122°53'.
Warning: this ship's position is 56 days out of date.

Length 250 m; draft 8.4 m.

Type: Tanker. MMSI: 256078000.

Date/timePositionNaut miles runAvg speedWind from/ knotsBaromVisibWave heightAir tempDewpointWater temp
2016-Apr-05 06:25N 30°29' E 122°53'1314.0
2016-Apr-05 05:31N 30°38' E 122°43'  
2016-Mar-31 22:09N 37°43' E 122°39'814.0
2016-Mar-31 21:33N 37°47' E 122°29'6913.7
2016-Mar-31 16:30N 38°11' E 121°07'1313.7
2016-Mar-31 15:33N 38°14' E 120°51'1313.3
2016-Mar-31 14:33N 38°13' E 120°34'1313.4
2016-Mar-31 13:34N 38°09' E 120°18'1413.8
2016-Mar-31 12:34N 37°56' E 120°13'1313.4
2016-Mar-31 11:33N 37°43' E 120°11'7 6.8
2016-Mar-31 10:33N 37°39' E 120°18'0 0.1
2016-Mar-31 07:18N 37°39' E 120°18'0 0.0
2016-Mar-31 06:30N 37°39' E 120°18'0 0.0
2016-Mar-31 05:33N 37°39' E 120°18'0 0.0
2016-Mar-31 01:24N 37°39' E 120°18'0 0.0
2016-Mar-30 23:24N 37°39' E 120°18'0 0.0
2016-Mar-30 22:30N 37°39' E 120°18'0 0.0
2016-Mar-30 21:24N 37°39' E 120°18'0 0.0
2016-Mar-30 18:18N 37°39' E 120°18'0 0.0
2016-Mar-30 17:24N 37°39' E 120°18'0 0.0
2016-Mar-30 14:12N 37°39' E 120°18'0 0.0
2016-Mar-30 13:06N 37°39' E 120°18'0 0.0
2016-Mar-30 12:30N 37°39' E 120°18'0 0.0
2016-Mar-30 10:06N 37°39' E 120°18'0 0.0
2016-Mar-30 08:24N 37°39' E 120°18'0 0.0
2016-Mar-30 07:30N 37°39' E 120°18'0 0.0
2016-Mar-30 04:24N 37°39' E 120°18'0 0.0
2016-Mar-30 03:30N 37°39' E 120°18'0 0.0
2016-Mar-30 02:18N 37°39' E 120°18'0 0.0
2016-Mar-30 01:30N 37°39' E 120°18'0 0.0
2016-Mar-29 23:18N 37°39' E 120°18'0 0.0
2016-Mar-29 22:24N 37°39' E 120°18'0 0.0
2016-Mar-29 21:30N 37°39' E 120°18'0 0.0
2016-Mar-29 20:30N 37°39' E 120°18'0 0.0
2016-Mar-29 19:30N 37°39' E 120°18'0 0.0
2016-Mar-29 18:24N 37°39' E 120°18'0 0.0
2016-Mar-29 17:30N 37°39' E 120°18'0 0.0
2016-Mar-29 16:24N 37°39' E 120°18'0 0.0
2016-Mar-29 15:30N 37°39' E 120°18'0 0.0
2016-Mar-29 14:30N 37°39' E 120°18'0 0.0
2016-Mar-29 13:30N 37°39' E 120°18'0 0.0
2016-Mar-29 12:26N 37°39' E 120°18'0 0.0
2016-Mar-29 11:32N 37°39' E 120°18'0 0.0
2016-Mar-29 10:32N 37°39' E 120°18'0 0.0
2016-Mar-29 09:29N 37°39' E 120°18'0 0.0
2016-Mar-29 08:33N 37°39' E 120°18'0 0.0
2016-Mar-29 07:33N 37°39' E 120°18'0 0.1
2016-Mar-29 05:24N 37°39' E 120°18'0 0.0
2016-Mar-29 04:30N 37°39' E 120°18'0 0.0
2016-Mar-29 03:18N 37°39' E 120°18'0 0.0
2016-Mar-29 02:32N 37°39' E 120°18'0 0.0
2016-Mar-29 01:29N 37°39' E 120°18'0 0.0
2016-Mar-29 00:32N 37°39' E 120°18'0 0.0
2016-Mar-28 23:32N 37°39' E 120°18'0 0.0
2016-Mar-28 22:32N 37°39' E 120°18'0 0.0
2016-Mar-28 21:32N 37°39' E 120°18'0 0.0
2016-Mar-28 20:32N 37°39' E 120°18'0 0.0
2016-Mar-28 19:29N 37°39' E 120°18'0 0.0
2016-Mar-28 18:32N 37°39' E 120°18'0 0.0
2016-Mar-28 17:32N 37°39' E 120°18'0 0.0
2016-Mar-28 16:32N 37°39' E 120°18'0 0.0
2016-Mar-28 15:32N 37°39' E 120°18'0 0.0
2016-Mar-28 14:32N 37°39' E 120°18'0 0.0
2016-Mar-28 13:32N 37°39' E 120°18'0 0.0
2016-Mar-28 12:32N 37°39' E 120°18'0 0.0
2016-Mar-28 11:20N 37°39' E 120°18'0 0.0
2016-Mar-28 10:26N 37°39' E 120°18'0 0.0
2016-Mar-28 09:32N 37°39' E 120°18'0 0.4
2016-Mar-28 08:33N 37°39' E 120°18'6 6.5
2016-Mar-28 07:33N 37°42' E 120°11'6 5.5
2016-Mar-28 06:33N 37°47' E 120°09'1 0.7
2016-Mar-28 05:33N 37°48' E 120°08'0 0.1
2016-Mar-28 04:30N 37°48' E 120°08'0 0.2
2016-Mar-28 03:30N 37°48' E 120°09'0 0.1
2016-Mar-28 01:30N 37°48' E 120°09'0 0.0
2016-Mar-28 00:30N 37°48' E 120°09'0 0.0
2016-Mar-27 23:33N 37°48' E 120°09'0 0.1
2016-Mar-27 22:30N 37°48' E 120°08'0 0.1
2016-Mar-27 21:30N 37°48' E 120°08'0 0.0
2016-Mar-27 20:33N 37°48' E 120°08'0 0.1
2016-Mar-27 19:33N 37°48' E 120°08'0 0.1
2016-Mar-27 18:30N 37°48' E 120°08'0 0.0
2016-Mar-27 17:33N 37°48' E 120°08'0 0.0
2016-Mar-27 16:33N 37°48' E 120°08'0 0.1
2016-Mar-27 15:33N 37°48' E 120°08'0 0.1
2016-Mar-27 14:24N 37°48' E 120°08'0 0.0
2016-Mar-27 12:30N 37°48' E 120°09'0 0.1
2016-Mar-27 11:24N 37°48' E 120°08'0 0.0
2016-Mar-27 10:27N 37°48' E 120°08'0 0.1
2016-Mar-27 09:33N 37°48' E 120°08'0 0.1
2016-Mar-27 08:33N 37°48' E 120°08'0 0.1
2016-Mar-27 07:33N 37°48' E 120°08'0 0.0
2016-Mar-27 06:33N 37°48' E 120°08'0 0.0
2016-Mar-27 05:33N 37°48' E 120°08'0 0.0
2016-Mar-27 04:33N 37°48' E 120°08'0 0.1
2016-Mar-27 03:33N 37°48' E 120°08'0 0.2
2016-Mar-27 02:33N 37°48' E 120°09'0 0.0
2016-Mar-27 01:33N 37°48' E 120°09'0 0.0
2016-Mar-26 21:14N 37°48' E 120°08'0 0.0
2016-Mar-26 20:32N 37°48' E 120°08'0 0.1
2016-Mar-26 19:32N 37°48' E 120°08'0 0.1
2016-Mar-26 18:26N 37°48' E 120°08'0 0.0
2016-Mar-26 17:32N 37°48' E 120°08'0 0.0
2016-Mar-26 16:32N 37°48' E 120°08'0 0.0
2016-Mar-26 15:32N 37°48' E 120°08'0 0.1
2016-Mar-26 14:32N 37°48' E 120°08'0 0.1
2016-Mar-26 13:32N 37°48' E 120°08'0 0.1
2016-Mar-26 12:26N 37°48' E 120°09'0 0.0
2016-Mar-26 11:29N 37°48' E 120°09'0 0.1
2016-Mar-26 10:26N 37°48' E 120°08'0 0.0
2016-Mar-26 09:32N 37°48' E 120°08'0 0.1
2016-Mar-26 08:32N 37°48' E 120°08'0 0.2
2016-Mar-26 07:32N 37°48' E 120°08'0 0.0
2016-Mar-26 06:32N 37°48' E 120°08'  

Dump ship's entire track history